Almo, ID

12:26 AM MDT on October 02, 2014 (GMT -0600)
RAWS CITY OF ROCKS ID US | Change Station
CLOSE
Current Station
Personal Weather Station
Location: Almo, ID
Elevation: 5325 ft
Nearby Weather Stations

Elev 5325 ft 42.09 °N, 113.63 °W | Updated 28 minutes ago

Clear
Clear
38 °F
Feels Like 38 °F
N
3
Wind Variable Wind from WSW
Gusts 8.0 mph

Today
High -- | Low -- °F
--% Chance of Precip.
Yesterday
High -- | Low -- °F
Precip. -- in
7:32 AM 7:14 PM
First Quarter, 55% visible
Pressure 30.16 in
Visibility 10.0 miles
Clouds Clear
Windchill 38 °F
Dew Point 28 °F
Humidity 67%
Rainfall 0.01 in
Snow Depth Not available.
UV 0 out of 12
Pollen 5.70 out of 12
PM2.5 Good
Flu Activity Not available.
METAR KBYI 020553Z AUTO 21010KT 10SM CLR 06/00 A3018 RMK AO2 SLP212 T00560000 10128 20050 53003

More Conditions Fewer Conditions

Pressure 30.16 in
Visibility 10.0 miles
Clouds Clear
Windchill 38 °F
Dew Point 28 °F
Humidity 67%
Rainfall 0.01 in
Snow Depth Not available.
UV 0 out of 12
Pollen 5.70 out of 12
PM2.5 Good
Flu Activity Not available.
METAR KBYI 020553Z AUTO 21010KT 10SM CLR 06/00 A3018 RMK AO2 SLP212 T00560000 10128 20050 53003

More Conditions Fewer Conditions

10-Day Weather Forecast

Almanac

Astronomy

Oct. 02, 2014 Rise Set
Actual Time 7:32 AM MDT 7:14 PM MDT
Civil Twilight 7:04 AM MDT 7:42 PM MDT
Nautical Twilight 6:32 AM MDT 8:14 PM MDT
Astronomical Twilight 5:59 AM MDT 8:47 PM MDT
Moon 3:29 PM MDT 12:47 AM MDT
Length of Visible Light 12h 37m
Length of Day
11h 41m
Tomorrow will be 2m 48s shorter.
First Quarter, 55% of the Moon is Illuminated
Today
First Quarter
Oct 8
Full
Oct 15
Last Quarter
Oct 23
New
Oct 30
First Quarter

Community

WunderPhotos

Upload Photos

1,758,198 photos uploaded!

WunderBlogs® & News

Nearby

Air Quality

  Air Quality AQ Index Pollutant
Current Good
PM2.5
Wednesday Good
PM2.5
Thursday Good
PM2.5

Snow Depth

Station Depth Elevation
Bogus Basin 1 in 6340 ft
Smiley Mountain 1 in 9520 ft
Morgan Creek 1 in 7600 ft
Galena Summit 0 in 8780 ft
Jackson Peak 1 in 7070 ft

Earthquake Activity

City Distance Mag. Time & Date
No recent earthquake activity has been reported nearby.
Minimum magnitude displayed is 2.5.

Coastal Water Temperatures

Place Temperature
No Stations Reporting

Nearby Weather Stations